createdAt,value
2023-03-27T00:01:43.877Z,8.60
2023-03-27T00:03:49.148Z,8.70
2023-03-27T00:06:06.955Z,8.60
2023-03-27T00:08:12.250Z,8.60
2023-03-27T00:10:16.768Z,8.60
2023-03-27T00:12:18.472Z,8.60
2023-03-27T00:14:20.201Z,8.50
2023-03-27T00:16:25.115Z,8.50
2023-03-27T00:18:29.606Z,8.50
2023-03-27T00:20:37.214Z,8.50
2023-03-27T00:22:39.505Z,8.50
2023-03-27T00:24:41.210Z,8.40
2023-03-27T00:26:43.323Z,8.40
2023-03-27T00:28:45.147Z,8.40
2023-03-27T00:30:48.440Z,8.40
2023-03-27T00:32:50.920Z,8.40
2023-03-27T00:34:52.630Z,8.40
2023-03-27T00:36:54.291Z,8.40
2023-03-27T00:38:55.990Z,8.30
2023-03-27T00:40:58.053Z,8.30
2023-03-27T00:42:59.977Z,8.30
2023-03-27T00:45:07.132Z,8.20
2023-03-27T00:47:12.653Z,8.20
2023-03-27T00:49:16.364Z,8.20
2023-03-27T00:51:23.875Z,8.20
2023-03-27T00:53:28.686Z,8.20
2023-03-27T00:55:33.240Z,8.20
2023-03-27T00:57:36.914Z,8.20
2023-03-27T00:59:41.576Z,8.10
2023-03-27T01:01:44.487Z,8.10
2023-03-27T01:03:48.894Z,8.10
2023-03-27T01:05:55.103Z,8.10
2023-03-27T01:08:00.647Z,8.10
2023-03-27T01:10:05.380Z,8.10
2023-03-27T01:12:20.004Z,8.00
2023-03-27T01:14:43.967Z,8.00
2023-03-27T01:17:15.207Z,8.10
2023-03-27T01:19:46.625Z,8.00
2023-03-27T01:22:46.352Z,8.00
2023-03-27T01:25:17.395Z,8.00
2023-03-27T01:27:21.614Z,8.00
2023-03-27T01:29:46.968Z,7.90
2023-03-27T01:32:08.902Z,7.90
2023-03-27T01:34:29.364Z,7.90
2023-03-27T01:36:58.001Z,7.90
2023-03-27T01:39:36.457Z,7.80
2023-03-27T01:41:52.398Z,7.80
2023-03-27T01:44:24.004Z,7.80
2023-03-27T01:46:36.181Z,7.70
2023-03-27T01:48:48.295Z,7.70
2023-03-27T01:50:58.423Z,7.70
2023-03-27T01:53:08.899Z,7.60
2023-03-27T01:55:32.913Z,7.60
2023-03-27T01:57:49.717Z,7.60
2023-03-27T02:00:18.088Z,7.60
2023-03-27T02:02:28.586Z,7.50
2023-03-27T02:04:39.229Z,7.50
2023-03-27T02:06:55.120Z,7.40
2023-03-27T02:09:42.364Z,7.40
2023-03-27T02:11:52.082Z,7.40
2023-03-27T02:14:14.851Z,7.30
2023-03-27T02:16:22.115Z,7.20
2023-03-27T02:18:39.045Z,7.20
2023-03-27T02:20:41.678Z,7.10
2023-03-27T02:22:49.059Z,7.00
2023-03-27T02:24:54.831Z,7.00
2023-03-27T02:27:22.776Z,6.90
2023-03-27T02:30:05.600Z,6.90
2023-03-27T02:32:17.587Z,6.90
2023-03-27T02:34:29.070Z,6.80
2023-03-27T02:36:55.630Z,6.80
2023-03-27T02:39:19.620Z,6.80
2023-03-27T02:41:50.168Z,6.70
2023-03-27T02:44:46.259Z,6.70
2023-03-27T02:47:17.600Z,6.60
2023-03-27T02:49:31.331Z,6.60
2023-03-27T02:51:48.692Z,6.50
2023-03-27T02:54:03.115Z,6.50
2023-03-27T02:56:09.116Z,6.50
2023-03-27T02:58:17.042Z,6.50
2023-03-27T03:00:37.393Z,6.50
2023-03-27T03:03:02.991Z,6.40
2023-03-27T03:05:14.331Z,6.40
2023-03-27T03:07:16.259Z,6.40
2023-03-27T03:09:20.427Z,6.40
2023-03-27T03:11:22.287Z,6.30
2023-03-27T03:13:24.164Z,6.30
2023-03-27T03:15:25.912Z,6.30
2023-03-27T03:17:27.650Z,6.30
2023-03-27T03:19:31.486Z,6.20
2023-03-27T03:21:42.233Z,6.20
2023-03-27T03:23:58.146Z,6.20
2023-03-27T03:26:01.526Z,6.20
2023-03-27T03:28:09.727Z,6.20
2023-03-27T03:30:16.845Z,6.20
2023-03-27T03:32:43.402Z,6.20
2023-03-27T03:34:48.135Z,6.10
2023-03-27T03:36:50.766Z,6.10
2023-03-27T03:38:57.079Z,6.10
2023-03-27T03:40:59.686Z,6.10
2023-03-27T03:43:01.905Z,6.10
2023-03-27T03:45:08.673Z,6.00
2023-03-27T03:47:10.385Z,6.00
2023-03-27T03:49:12.238Z,6.00
2023-03-27T03:51:14.885Z,6.00
2023-03-27T03:53:19.040Z,6.00
2023-03-27T03:55:25.661Z,5.90
2023-03-27T03:57:27.963Z,6.00
2023-03-27T03:59:39.149Z,5.90
2023-03-27T04:02:01.371Z,5.90
2023-03-27T04:04:05.696Z,5.90
2023-03-27T04:06:31.981Z,5.80
2023-03-27T04:08:35.018Z,5.80
2023-03-27T04:10:42.600Z,5.70
2023-03-27T04:12:53.920Z,5.70
2023-03-27T04:15:02.615Z,5.60
2023-03-27T04:17:33.594Z,5.60
2023-03-27T04:19:38.444Z,5.50
2023-03-27T04:21:42.241Z,5.50
2023-03-27T04:23:45.906Z,5.50
2023-03-27T04:25:50.332Z,5.40
2023-03-27T04:28:02.194Z,5.40
2023-03-27T04:30:22.099Z,5.40
2023-03-27T04:32:48.177Z,5.30
2023-03-27T04:35:13.460Z,5.30
2023-03-27T04:37:27.793Z,5.30
2023-03-27T04:39:46.128Z,5.20
2023-03-27T04:41:50.826Z,5.20
2023-03-27T04:43:52.587Z,5.30
2023-03-27T04:45:54.791Z,5.20
2023-03-27T04:47:56.881Z,5.20
2023-03-27T04:50:00.070Z,5.10
2023-03-27T04:52:02.665Z,5.10
2023-03-27T04:54:05.089Z,5.10
2023-03-27T04:56:08.244Z,5.10
2023-03-27T04:58:15.526Z,5.10
2023-03-27T05:00:19.672Z,5.10
2023-03-27T05:02:26.327Z,5.00
2023-03-27T05:04:39.032Z,5.00
2023-03-27T05:07:00.012Z,5.00
2023-03-27T05:09:02.307Z,5.00
2023-03-27T05:11:07.757Z,5.00
2023-03-27T05:13:16.482Z,5.00
2023-03-27T05:15:22.213Z,5.00
2023-03-27T05:17:25.911Z,4.90
2023-03-27T05:19:32.549Z,4.90
2023-03-27T05:21:38.510Z,4.90
2023-03-27T05:23:43.974Z,4.90
2023-03-27T05:26:00.239Z,4.90
2023-03-27T05:28:10.947Z,4.80
2023-03-27T05:30:17.534Z,4.80
2023-03-27T05:32:21.852Z,4.80
2023-03-27T05:34:27.073Z,4.80
2023-03-27T05:36:30.228Z,4.80
2023-03-27T05:38:33.111Z,4.80
2023-03-27T05:40:49.623Z,4.70
2023-03-27T05:42:53.924Z,4.70
2023-03-27T05:44:56.573Z,4.70
2023-03-27T05:46:59.041Z,4.70
2023-03-27T05:49:11.283Z,4.70
2023-03-27T05:51:14.800Z,4.70
2023-03-27T05:53:16.543Z,4.70
2023-03-27T05:55:36.669Z,4.70
2023-03-27T05:57:40.736Z,4.70
2023-03-27T05:59:43.177Z,4.70
2023-03-27T06:01:58.408Z,4.60
2023-03-27T06:04:05.749Z,4.70
2023-03-27T06:06:30.014Z,4.60
2023-03-27T06:08:34.880Z,4.60
2023-03-27T06:10:39.468Z,4.70
2023-03-27T06:13:08.599Z,4.70
2023-03-27T06:15:24.586Z,4.70
2023-03-27T06:17:48.012Z,4.70
2023-03-27T06:19:49.918Z,4.80
2023-03-27T06:21:51.876Z,4.80
2023-03-27T06:23:56.666Z,4.80
2023-03-27T06:26:00.653Z,4.90
2023-03-27T06:28:08.311Z,4.90
2023-03-27T06:30:22.044Z,5.00
2023-03-27T06:32:47.869Z,5.00
2023-03-27T06:34:50.776Z,5.10
2023-03-27T06:37:13.069Z,5.20
2023-03-27T06:39:17.884Z,5.20
2023-03-27T06:41:25.398Z,5.30
2023-03-27T06:43:53.268Z,5.30
2023-03-27T06:46:09.714Z,5.40
2023-03-27T06:48:31.757Z,5.50
2023-03-27T06:50:37.933Z,5.50
2023-03-27T06:52:39.663Z,5.60
2023-03-27T06:54:54.892Z,5.60
2023-03-27T06:56:59.544Z,5.70
2023-03-27T06:59:04.442Z,5.80
2023-03-27T07:01:06.377Z,5.80
2023-03-27T07:03:26.075Z,5.90
2023-03-27T07:05:49.694Z,6.00
2023-03-27T07:07:51.954Z,6.00
2023-03-27T07:09:56.774Z,6.10
2023-03-27T07:12:04.163Z,6.10
2023-03-27T07:14:06.328Z,6.10
2023-03-27T07:16:11.284Z,6.20
2023-03-27T07:18:15.112Z,6.20
2023-03-27T07:20:23.948Z,6.20
2023-03-27T07:22:29.425Z,6.20
2023-03-27T07:24:33.694Z,6.20
2023-03-27T07:26:36.152Z,6.20
2023-03-27T07:28:47.902Z,6.20
2023-03-27T07:30:49.591Z,6.30
2023-03-27T07:32:55.521Z,6.30
2023-03-27T07:34:59.792Z,6.40
2023-03-27T07:37:22.649Z,6.30
2023-03-27T07:39:44.603Z,6.40
2023-03-27T07:41:46.714Z,6.50
2023-03-27T07:43:59.737Z,6.50
2023-03-27T07:46:08.413Z,6.60
2023-03-27T07:48:16.692Z,6.70
2023-03-27T07:50:21.639Z,6.70
2023-03-27T07:52:23.915Z,6.80
2023-03-27T07:54:31.913Z,6.90
2023-03-27T07:56:34.445Z,6.90
2023-03-27T07:59:11.948Z,7.00
2023-03-27T08:01:16.338Z,7.10
2023-03-27T08:03:19.867Z,7.10
2023-03-27T08:05:26.273Z,7.20
2023-03-27T08:07:42.297Z,7.20
2023-03-27T08:09:44.587Z,7.30
2023-03-27T08:11:46.738Z,7.40
2023-03-27T08:13:50.185Z,7.40
2023-03-27T08:15:52.782Z,7.40
2023-03-27T08:17:59.636Z,7.40
2023-03-27T08:20:09.237Z,7.50
2023-03-27T08:22:21.145Z,7.50
2023-03-27T08:24:42.430Z,7.50
2023-03-27T08:26:51.317Z,7.50
2023-03-27T08:28:56.001Z,7.50
2023-03-27T08:31:15.639Z,7.60
2023-03-27T08:33:20.341Z,7.70
2023-03-27T08:35:22.305Z,7.70
2023-03-27T08:37:25.505Z,7.80
2023-03-27T08:40:01.084Z,7.90
2023-03-27T08:42:08.661Z,8.00
2023-03-27T08:44:15.683Z,8.10
2023-03-27T08:46:29.096Z,8.10
2023-03-27T08:48:43.865Z,8.20
2023-03-27T08:50:51.861Z,8.30
2023-03-27T08:52:54.035Z,8.30
2023-03-27T08:55:15.790Z,8.30
2023-03-27T08:57:31.416Z,8.30
2023-03-27T08:59:38.863Z,8.30
2023-03-27T09:01:51.725Z,8.30
2023-03-27T09:04:19.916Z,8.30
2023-03-27T09:06:45.203Z,8.30
2023-03-27T09:09:23.703Z,8.30
2023-03-27T09:11:41.005Z,8.40
2023-03-27T09:13:47.765Z,8.40
2023-03-27T09:16:07.869Z,8.40
2023-03-27T09:18:28.158Z,8.40
2023-03-27T09:20:37.110Z,8.40
2023-03-27T09:22:44.197Z,8.40
2023-03-27T09:24:54.957Z,8.50
2023-03-27T09:27:21.819Z,8.50
2023-03-27T09:29:41.812Z,8.60
2023-03-27T09:32:09.590Z,8.60
2023-03-27T09:34:26.853Z,8.70
2023-03-27T09:36:28.949Z,8.80
2023-03-27T09:38:42.059Z,8.90
2023-03-27T09:41:00.710Z,9.00
2023-03-27T09:43:24.593Z,9.10
2023-03-27T09:45:26.896Z,9.20
2023-03-27T09:47:50.547Z,9.20
2023-03-27T09:50:03.634Z,9.20
2023-03-27T09:52:36.062Z,9.30
2023-03-27T09:54:53.269Z,9.40
2023-03-27T09:57:29.093Z,9.50
2023-03-27T09:59:37.545Z,9.60
2023-03-27T10:01:49.626Z,9.70
2023-03-27T10:03:56.764Z,9.80
2023-03-27T10:06:15.858Z,9.80
2023-03-27T10:08:48.652Z,9.90
2023-03-27T10:10:59.265Z,9.90
2023-03-27T10:13:17.898Z,9.90
2023-03-27T10:15:38.807Z,9.90
2023-03-27T10:17:47.516Z,9.90
2023-03-27T10:19:52.876Z,9.90
2023-03-27T10:21:56.617Z,10.00
2023-03-27T10:24:22.242Z,10.00
2023-03-27T10:26:43.054Z,10.10
2023-03-27T10:28:52.335Z,10.10
2023-03-27T10:31:34.973Z,10.10
2023-03-27T10:33:47.339Z,10.10
2023-03-27T10:35:53.548Z,10.10
2023-03-27T10:38:01.906Z,10.00
2023-03-27T10:40:36.262Z,9.90
2023-03-27T10:42:53.042Z,9.90
2023-03-27T10:44:57.614Z,9.80
2023-03-27T10:47:10.074Z,9.80
2023-03-27T10:49:25.419Z,9.80
2023-03-27T10:51:46.184Z,9.80
2023-03-27T10:54:01.641Z,9.90
2023-03-27T10:56:42.617Z,9.90
2023-03-27T10:58:53.203Z,9.90
2023-03-27T11:01:15.026Z,10.00
2023-03-27T11:03:27.687Z,10.00
2023-03-27T11:05:48.207Z,9.90
2023-03-27T11:08:20.015Z,9.70
2023-03-27T11:10:29.594Z,9.60
2023-03-27T11:12:33.600Z,9.50
2023-03-27T11:14:46.544Z,9.40
2023-03-27T11:16:58.188Z,9.40
2023-03-27T11:19:31.106Z,9.30
2023-03-27T11:22:45.934Z,9.40
2023-03-27T11:25:05.842Z,9.40
2023-03-27T11:27:30.727Z,9.30
2023-03-27T11:29:57.136Z,9.30
2023-03-27T11:32:13.283Z,9.30
2023-03-27T11:34:53.520Z,9.30
2023-03-27T11:37:23.981Z,9.10
2023-03-27T11:39:48.276Z,9.00
2023-03-27T11:41:59.130Z,8.90
2023-03-27T11:44:01.020Z,8.70
2023-03-27T11:46:45.785Z,8.60
2023-03-27T11:49:21.844Z,8.50
2023-03-27T11:51:52.734Z,8.40
2023-03-27T11:54:13.379Z,8.50
2023-03-27T11:56:23.660Z,8.50
2023-03-27T11:58:34.759Z,8.60
2023-03-27T12:01:09.912Z,8.70
2023-03-27T12:03:43.561Z,8.80
2023-03-27T12:06:09.202Z,9.00
2023-03-27T12:08:37.906Z,9.10
2023-03-27T12:10:43.272Z,9.20
2023-03-27T12:13:08.448Z,9.20
2023-03-27T12:15:29.542Z,9.30
2023-03-27T12:17:40.878Z,9.40
2023-03-27T12:20:17.898Z,9.50
2023-03-27T12:22:45.510Z,9.60
2023-03-27T12:25:19.941Z,9.80
2023-03-27T12:28:22.753Z,9.90
2023-03-27T12:31:13.313Z,10.10
2023-03-27T12:33:35.645Z,10.20
2023-03-27T12:35:47.148Z,10.30
2023-03-27T12:38:03.205Z,10.40
2023-03-27T12:40:37.071Z,10.50
2023-03-27T12:42:52.294Z,10.50
2023-03-27T12:45:19.701Z,10.60
2023-03-27T12:47:29.762Z,10.80
2023-03-27T12:49:48.215Z,10.90
2023-03-27T12:52:00.167Z,11.00
2023-03-27T12:54:25.973Z,11.10
2023-03-27T12:56:32.864Z,11.20
2023-03-27T12:58:37.718Z,11.30
2023-03-27T13:01:03.469Z,11.40
2023-03-27T13:03:55.182Z,11.50
2023-03-27T13:06:27.440Z,11.70
2023-03-27T13:08:49.537Z,11.70
2023-03-27T13:11:17.164Z,11.70
2023-03-27T13:13:51.421Z,11.70
2023-03-27T13:16:31.548Z,11.70
2023-03-27T13:18:58.658Z,11.60
2023-03-27T13:21:30.968Z,11.60
2023-03-27T13:23:59.556Z,11.60
2023-03-27T13:26:31.074Z,11.70
2023-03-27T13:28:42.249Z,11.70
2023-03-27T13:30:52.724Z,11.80
2023-03-27T13:33:32.725Z,11.80
2023-03-27T13:35:41.377Z,11.90
2023-03-27T13:37:57.881Z,11.90
2023-03-27T13:40:23.152Z,11.90
2023-03-27T13:42:37.432Z,11.90
2023-03-27T13:44:59.299Z,11.90
2023-03-27T13:47:39.578Z,11.90
2023-03-27T13:50:16.624Z,11.90
2023-03-27T13:52:39.637Z,11.90
2023-03-27T13:55:13.532Z,11.80
2023-03-27T13:57:58.968Z,11.70
2023-03-27T14:00:44.003Z,11.50
2023-03-27T14:03:26.551Z,11.40
2023-03-27T14:06:12.929Z,11.20
2023-03-27T14:08:27.135Z,11.10
2023-03-27T14:11:23.774Z,10.90
2023-03-27T14:13:44.715Z,10.80
2023-03-27T14:16:09.643Z,10.80
2023-03-27T14:18:46.824Z,10.80
2023-03-27T14:21:00.536Z,10.80
2023-03-27T14:23:17.196Z,10.90
2023-03-27T14:25:50.632Z,10.90
2023-03-27T14:28:01.523Z,11.00
2023-03-27T14:30:07.277Z,11.10
2023-03-27T14:32:15.248Z,11.20
2023-03-27T14:34:25.031Z,11.20
2023-03-27T14:36:42.276Z,11.30
2023-03-27T14:38:51.314Z,11.30
2023-03-27T14:41:07.698Z,11.30
2023-03-27T14:43:22.142Z,11.30
2023-03-27T14:45:32.890Z,11.30
2023-03-27T14:47:39.506Z,11.20
2023-03-27T14:49:49.128Z,11.20
2023-03-27T14:52:01.538Z,11.10
2023-03-27T14:54:28.621Z,11.00
2023-03-27T14:56:45.621Z,11.00
2023-03-27T14:59:10.780Z,11.00
2023-03-27T15:01:26.491Z,10.90
2023-03-27T15:03:36.901Z,10.90
2023-03-27T15:05:53.861Z,10.90
2023-03-27T15:07:58.671Z,10.90
2023-03-27T15:10:31.320Z,10.80
2023-03-27T15:12:49.638Z,10.90
2023-03-27T15:14:52.890Z,10.80
2023-03-27T15:17:02.987Z,10.80
2023-03-27T15:19:19.418Z,10.80
2023-03-27T15:21:35.256Z,10.80
2023-03-27T15:23:43.572Z,10.70
2023-03-27T15:25:54.276Z,10.70
2023-03-27T15:28:05.939Z,10.60
2023-03-27T15:30:27.681Z,10.60
2023-03-27T15:32:42.741Z,10.60
2023-03-27T15:34:48.410Z,10.50
2023-03-27T15:37:01.201Z,10.50
2023-03-27T15:39:06.363Z,10.40
2023-03-27T15:41:17.713Z,10.40
2023-03-27T15:43:24.501Z,10.40
2023-03-27T15:45:42.510Z,10.30
2023-03-27T15:48:06.656Z,10.30
2023-03-27T15:50:17.422Z,10.30
2023-03-27T15:52:31.352Z,10.20
2023-03-27T15:54:35.465Z,10.20
2023-03-27T15:56:44.233Z,10.20
2023-03-27T15:58:51.553Z,10.10
2023-03-27T16:01:02.083Z,10.10
2023-03-27T16:03:08.605Z,10.10
2023-03-27T16:05:18.574Z,10.00
2023-03-27T16:07:25.074Z,9.90
2023-03-27T16:09:40.624Z,9.90
2023-03-27T16:11:48.822Z,9.90
2023-03-27T16:13:58.907Z,9.90
2023-03-27T16:16:04.254Z,9.90
2023-03-27T16:18:27.101Z,9.80
2023-03-27T16:20:35.062Z,9.90
2023-03-27T16:22:37.249Z,9.80
2023-03-27T16:24:38.992Z,9.80
2023-03-27T16:26:42.168Z,9.80
2023-03-27T16:28:44.209Z,9.80
2023-03-27T16:30:47.824Z,9.80
2023-03-27T16:32:50.978Z,9.80
2023-03-27T16:34:52.783Z,9.80
2023-03-27T16:36:54.560Z,9.90
2023-03-27T16:38:56.542Z,9.90
2023-03-27T16:40:58.506Z,9.80
2023-03-27T16:43:00.542Z,9.80
2023-03-27T16:45:05.308Z,9.80
2023-03-27T16:47:09.340Z,9.80
2023-03-27T16:49:12.592Z,9.80
2023-03-27T16:51:14.617Z,9.80
2023-03-27T16:53:19.600Z,9.80
2023-03-27T16:55:25.817Z,9.80
2023-03-27T16:57:30.232Z,9.80
2023-03-27T16:59:31.918Z,9.70
2023-03-27T17:01:33.661Z,9.70
2023-03-27T17:03:37.096Z,9.70
2023-03-27T17:05:38.807Z,9.60
2023-03-27T17:07:41.953Z,9.60
2023-03-27T17:09:44.061Z,9.50
2023-03-27T17:11:46.186Z,9.50
2023-03-27T17:13:48.927Z,9.50
2023-03-27T17:15:51.110Z,9.40
2023-03-27T17:17:53.062Z,9.40
2023-03-27T17:19:56.519Z,9.40
2023-03-27T17:21:58.283Z,9.40
2023-03-27T17:24:01.045Z,9.40
2023-03-27T17:26:06.841Z,9.30
2023-03-27T17:28:10.079Z,9.30
2023-03-27T17:30:12.334Z,9.30
2023-03-27T17:32:14.049Z,9.30
2023-03-27T17:34:15.920Z,9.30
2023-03-27T17:36:29.834Z,9.30
2023-03-27T17:38:39.906Z,9.30
2023-03-27T17:40:44.270Z,9.30
2023-03-27T17:42:46.010Z,9.20
2023-03-27T17:44:53.450Z,9.20
2023-03-27T17:46:57.271Z,9.20
2023-03-27T17:49:01.465Z,9.20
2023-03-27T17:51:09.404Z,9.10
2023-03-27T17:53:12.196Z,9.10
2023-03-27T17:55:16.813Z,9.10
2023-03-27T17:57:18.569Z,9.10
2023-03-27T17:59:20.963Z,9.00
2023-03-27T18:01:25.268Z,9.00
2023-03-27T18:03:29.251Z,9.00
2023-03-27T18:05:30.987Z,9.00
2023-03-27T18:07:32.740Z,8.90
2023-03-27T18:09:34.532Z,8.90
2023-03-27T18:11:38.395Z,8.90
2023-03-27T18:13:43.492Z,8.90
2023-03-27T18:15:45.837Z,8.80
2023-03-27T18:17:47.613Z,8.80
2023-03-27T18:19:58.764Z,8.80
2023-03-27T18:22:00.646Z,8.80
2023-03-27T18:24:02.396Z,8.70
2023-03-27T18:26:05.861Z,8.70
2023-03-27T18:28:09.775Z,8.70
2023-03-27T18:30:14.808Z,8.60
2023-03-27T18:32:18.964Z,8.60
2023-03-27T18:34:23.028Z,8.60
2023-03-27T18:36:25.152Z,8.60
2023-03-27T18:38:28.371Z,8.50
2023-03-27T18:40:32.676Z,8.50
2023-03-27T18:42:37.776Z,8.50
2023-03-27T18:44:41.390Z,8.40
2023-03-27T18:46:43.229Z,8.40
2023-03-27T18:48:51.325Z,8.30
2023-03-27T18:50:57.743Z,8.30
2023-03-27T18:52:59.512Z,8.20
2023-03-27T18:55:01.156Z,8.20
2023-03-27T18:57:03.009Z,8.10
2023-03-27T18:59:04.860Z,8.10
2023-03-27T19:01:11.785Z,8.00
2023-03-27T19:03:20.681Z,7.90
2023-03-27T19:05:32.122Z,7.80
2023-03-27T19:07:33.885Z,7.70
2023-03-27T19:09:41.299Z,7.70
2023-03-27T19:11:44.959Z,7.60
2023-03-27T19:13:46.690Z,7.60
2023-03-27T19:16:14.267Z,7.50
2023-03-27T19:18:37.574Z,7.50
2023-03-27T19:20:49.807Z,7.40
2023-03-27T19:22:59.616Z,7.40
2023-03-27T19:25:09.262Z,7.30
2023-03-27T19:27:23.032Z,7.30
2023-03-27T19:29:26.653Z,7.20
2023-03-27T19:31:28.362Z,7.20
2023-03-27T19:33:32.852Z,7.20
2023-03-27T19:35:34.656Z,7.20
2023-03-27T19:37:36.779Z,7.10
2023-03-27T19:39:38.531Z,7.10
2023-03-27T19:41:41.381Z,7.10
2023-03-27T19:43:45.726Z,7.10
2023-03-27T19:46:15.011Z,7.00
2023-03-27T19:48:21.931Z,7.00
2023-03-27T19:50:23.859Z,7.00
2023-03-27T19:52:49.420Z,7.00
2023-03-27T19:54:56.186Z,6.90
2023-03-27T19:56:58.987Z,6.90
2023-03-27T19:59:02.275Z,6.90
2023-03-27T20:01:04.586Z,6.80
2023-03-27T20:03:09.875Z,6.80
2023-03-27T20:05:14.825Z,6.70
2023-03-27T20:07:16.606Z,6.70
2023-03-27T20:09:18.880Z,6.70
2023-03-27T20:11:21.075Z,6.60
2023-03-27T20:13:22.776Z,6.60
2023-03-27T20:15:26.043Z,6.60
2023-03-27T20:17:28.521Z,6.50
2023-03-27T20:19:31.165Z,6.50
2023-03-27T20:21:45.294Z,6.40
2023-03-27T20:23:53.563Z,6.40
2023-03-27T20:26:01.220Z,6.40
2023-03-27T20:28:06.167Z,6.40
2023-03-27T20:30:13.863Z,6.40
2023-03-27T20:32:16.571Z,6.30
2023-03-27T20:34:19.379Z,6.30
2023-03-27T20:36:23.127Z,6.30
2023-03-27T20:38:31.354Z,6.20
2023-03-27T20:40:52.781Z,6.20
2023-03-27T20:43:03.463Z,6.20
2023-03-27T20:45:06.803Z,6.20
2023-03-27T20:47:12.548Z,6.10
2023-03-27T20:49:40.833Z,6.10
2023-03-27T20:51:43.292Z,6.10
2023-03-27T20:53:46.372Z,6.10
2023-03-27T20:55:59.231Z,6.00
2023-03-27T20:58:02.173Z,6.00
2023-03-27T21:00:08.118Z,6.00
2023-03-27T21:02:17.925Z,5.90
2023-03-27T21:04:21.451Z,5.90
2023-03-27T21:06:25.885Z,5.90
2023-03-27T21:08:28.285Z,5.80
2023-03-27T21:10:30.221Z,5.80
2023-03-27T21:12:32.987Z,5.70
2023-03-27T21:14:36.955Z,5.60
2023-03-27T21:16:48.371Z,5.60
2023-03-27T21:18:50.188Z,5.60
2023-03-27T21:20:52.971Z,5.50
2023-03-27T21:22:54.694Z,5.40
2023-03-27T21:24:58.783Z,5.40
2023-03-27T21:27:00.545Z,5.40
2023-03-27T21:29:03.368Z,5.30
2023-03-27T21:31:09.415Z,5.30
2023-03-27T21:33:16.043Z,5.20
2023-03-27T21:35:18.597Z,5.20
2023-03-27T21:37:20.287Z,5.20
2023-03-27T21:39:21.968Z,5.20
2023-03-27T21:41:25.596Z,5.10
2023-03-27T21:43:27.387Z,5.10
2023-03-27T21:45:30.772Z,5.10
2023-03-27T21:47:46.604Z,5.00
2023-03-27T21:49:49.085Z,5.00
2023-03-27T21:51:50.723Z,5.00
2023-03-27T21:53:53.175Z,4.90
2023-03-27T21:56:02.475Z,4.90
2023-03-27T21:58:06.699Z,4.90
2023-03-27T22:00:09.313Z,4.90
2023-03-27T22:02:19.516Z,4.80
2023-03-27T22:04:21.972Z,4.80
2023-03-27T22:06:24.381Z,4.80
2023-03-27T22:08:26.122Z,4.80
2023-03-27T22:10:28.803Z,4.80
2023-03-27T22:12:31.074Z,4.80
2023-03-27T22:14:32.851Z,4.80
2023-03-27T22:16:35.354Z,4.80
2023-03-27T22:18:37.133Z,4.80
2023-03-27T22:20:43.023Z,4.80
2023-03-27T22:22:44.753Z,4.70
2023-03-27T22:24:46.457Z,4.70
2023-03-27T22:26:51.002Z,4.80
2023-03-27T22:28:53.211Z,4.80
2023-03-27T22:30:54.963Z,4.70
2023-03-27T22:32:56.749Z,4.70
2023-03-27T22:34:58.547Z,4.70
2023-03-27T22:37:01.490Z,4.70
2023-03-27T22:39:03.939Z,4.70
2023-03-27T22:41:08.660Z,4.70
2023-03-27T22:43:10.302Z,4.70
2023-03-27T22:45:12.162Z,4.70
2023-03-27T22:47:16.001Z,4.60
2023-03-27T22:49:17.732Z,4.60
2023-03-27T22:51:19.364Z,4.60
2023-03-27T22:53:24.868Z,4.60
2023-03-27T22:55:26.993Z,4.60
2023-03-27T22:57:28.711Z,4.60
2023-03-27T22:59:32.653Z,4.60
2023-03-27T23:01:34.462Z,4.50
2023-03-27T23:03:36.420Z,4.50
2023-03-27T23:05:39.471Z,4.50
2023-03-27T23:07:41.679Z,4.50
2023-03-27T23:09:43.421Z,4.50
2023-03-27T23:11:48.802Z,4.50
2023-03-27T23:13:50.991Z,4.40
2023-03-27T23:15:53.271Z,4.40
2023-03-27T23:17:57.202Z,4.40
2023-03-27T23:20:04.612Z,4.40
2023-03-27T23:22:06.322Z,4.40
2023-03-27T23:24:08.190Z,4.30
2023-03-27T23:26:12.675Z,4.30
2023-03-27T23:28:14.654Z,4.30
2023-03-27T23:30:16.436Z,4.30
2023-03-27T23:32:18.110Z,4.30
2023-03-27T23:34:19.784Z,4.30
2023-03-27T23:36:26.062Z,4.20
2023-03-27T23:38:27.857Z,4.20
2023-03-27T23:40:29.524Z,4.20
2023-03-27T23:42:32.437Z,4.20
2023-03-27T23:44:34.394Z,4.10
2023-03-27T23:46:36.290Z,4.10
2023-03-27T23:48:40.518Z,4.10
2023-03-27T23:50:42.292Z,4.10
2023-03-27T23:52:43.948Z,4.10
2023-03-27T23:54:45.709Z,4.10
2023-03-27T23:56:47.429Z,4.10
2023-03-27T23:58:56.386Z,4.10
